createdAt,value
2022-08-19T00:01:53.502Z,9.97
2022-08-19T00:04:41.439Z,10.30
2022-08-19T00:07:30.874Z,10.38
2022-08-19T00:10:21.661Z,10.40
2022-08-19T00:13:10.585Z,10.20
2022-08-19T00:15:59.746Z,10.57
2022-08-19T00:18:47.842Z,10.03
2022-08-19T00:21:37.735Z,11.38
2022-08-19T00:24:28.370Z,11.53
2022-08-19T00:27:25.604Z,11.57
2022-08-19T00:30:15.504Z,10.40
2022-08-19T00:33:03.763Z,11.07
2022-08-19T00:35:56.060Z,11.60
2022-08-19T00:38:44.344Z,10.97
2022-08-19T00:41:34.187Z,11.57
2022-08-19T00:44:26.917Z,9.50
2022-08-19T00:47:16.161Z,12.07
2022-08-19T00:50:04.320Z,10.80
2022-08-19T00:52:54.332Z,11.20
2022-08-19T00:55:42.780Z,11.30
2022-08-19T00:58:35.930Z,11.23
2022-08-19T01:01:23.776Z,10.77
2022-08-19T01:04:11.637Z,10.95
2022-08-19T01:07:00.213Z,10.80
2022-08-19T01:09:49.048Z,10.83
2022-08-19T01:12:37.348Z,11.38
2022-08-19T01:15:32.937Z,11.87
2022-08-19T01:18:22.909Z,11.70
2022-08-19T01:21:19.324Z,11.73
2022-08-19T01:24:09.269Z,12.17
2022-08-19T01:26:56.975Z,10.70
2022-08-19T01:29:47.027Z,12.20
2022-08-19T01:32:35.025Z,11.00
2022-08-19T01:35:27.888Z,9.83
2022-08-19T01:38:24.936Z,10.93
2022-08-19T01:41:15.034Z,11.47
2022-08-19T01:44:17.788Z,10.30
2022-08-19T01:47:29.241Z,10.65
2022-08-19T01:50:17.371Z,11.20
2022-08-19T01:53:08.344Z,9.43
2022-08-19T01:55:56.466Z,11.30
2022-08-19T01:58:50.376Z,12.15
2022-08-19T02:01:38.075Z,12.47
2022-08-19T02:04:26.516Z,12.90
2022-08-19T02:07:14.292Z,11.47
2022-08-19T02:10:08.951Z,11.33
2022-08-19T02:13:00.019Z,12.03
2022-08-19T02:15:49.556Z,11.07
2022-08-19T02:18:37.314Z,13.18
2022-08-19T02:21:26.115Z,13.17
2022-08-19T02:24:13.911Z,12.13
2022-08-19T02:27:01.257Z,12.30
2022-08-19T02:29:50.642Z,11.77
2022-08-19T02:32:44.201Z,10.80
2022-08-19T02:35:32.557Z,11.33
2022-08-19T02:38:29.140Z,9.93
2022-08-19T02:41:20.212Z,10.90
2022-08-19T02:44:29.824Z,11.20
2022-08-19T02:47:17.561Z,10.67
2022-08-19T02:50:08.454Z,11.70
2022-08-19T02:52:56.021Z,10.10
2022-08-19T02:55:48.029Z,10.57
2022-08-19T02:58:35.559Z,10.67
2022-08-19T03:01:25.924Z,10.97
2022-08-19T03:04:16.534Z,11.52
2022-08-19T03:07:10.693Z,11.53
2022-08-19T03:09:59.304Z,11.30
2022-08-19T03:12:47.255Z,10.30
2022-08-19T03:15:34.836Z,12.10
2022-08-19T03:18:23.361Z,12.70
2022-08-19T03:21:12.292Z,12.23
2022-08-19T03:24:04.758Z,12.43
2022-08-19T03:26:58.575Z,11.60
2022-08-19T03:29:46.644Z,12.70
2022-08-19T03:32:34.445Z,11.13
2022-08-19T03:35:22.515Z,11.03
2022-08-19T03:38:09.880Z,10.63
2022-08-19T03:40:58.570Z,11.13
2022-08-19T03:43:47.635Z,10.90
2022-08-19T03:46:35.509Z,10.53
2022-08-19T03:49:28.250Z,10.80
2022-08-19T03:52:16.638Z,11.10
2022-08-19T03:55:04.285Z,11.97
2022-08-19T03:57:57.356Z,10.50
2022-08-19T04:00:46.668Z,10.90
2022-08-19T04:03:34.113Z,11.47
2022-08-19T04:06:25.065Z,11.35
2022-08-19T04:09:14.000Z,11.30
2022-08-19T04:12:01.404Z,12.33
2022-08-19T04:14:50.207Z,11.30
2022-08-19T04:17:37.858Z,10.97
2022-08-19T04:20:25.075Z,10.63
2022-08-19T04:23:13.635Z,11.40
2022-08-19T04:26:01.238Z,10.70
2022-08-19T04:28:52.537Z,11.00
2022-08-19T04:31:42.977Z,11.30
2022-08-19T04:34:31.462Z,10.90
2022-08-19T04:37:18.785Z,11.00
2022-08-19T04:40:26.461Z,10.13
2022-08-19T04:43:14.804Z,9.20
2022-08-19T04:46:07.918Z,11.50
2022-08-19T04:48:57.826Z,11.10
2022-08-19T04:51:48.212Z,10.18
2022-08-19T04:54:38.447Z,11.63
2022-08-19T04:57:27.209Z,12.20
2022-08-19T05:00:15.863Z,12.37
2022-08-19T05:03:03.534Z,11.90
2022-08-19T05:05:56.540Z,11.40
2022-08-19T05:08:45.763Z,11.20
2022-08-19T05:11:40.168Z,12.03
2022-08-19T05:14:27.414Z,11.20
2022-08-19T05:17:33.520Z,11.37
2022-08-19T05:20:39.835Z,11.43
2022-08-19T05:23:28.682Z,12.03
2022-08-19T05:26:17.104Z,11.77
2022-08-19T05:29:05.789Z,11.80
2022-08-19T05:31:54.057Z,12.00
2022-08-19T05:34:41.594Z,11.80
2022-08-19T05:37:28.941Z,12.53
2022-08-19T05:40:17.923Z,10.80
2022-08-19T05:43:06.813Z,10.47
2022-08-19T05:45:54.141Z,10.63
2022-08-19T05:48:41.327Z,12.47
2022-08-19T05:51:29.236Z,12.55
2022-08-19T05:54:17.425Z,12.27
2022-08-19T05:57:06.597Z,13.33
2022-08-19T05:59:58.161Z,13.87
2022-08-19T06:02:46.400Z,13.70
2022-08-19T06:05:43.528Z,11.97
2022-08-19T06:08:39.896Z,13.13
2022-08-19T06:11:36.437Z,11.73
2022-08-19T06:14:31.417Z,13.10
2022-08-19T06:17:20.623Z,13.57
2022-08-19T06:20:14.462Z,14.73
2022-08-19T06:23:01.878Z,14.97
2022-08-19T06:25:49.309Z,12.23
2022-08-19T06:28:36.799Z,12.90
2022-08-19T06:31:29.807Z,13.17
2022-08-19T06:34:18.006Z,12.13
2022-08-19T06:37:06.695Z,12.43
2022-08-19T06:39:54.093Z,11.73
2022-08-19T06:42:44.398Z,12.65
2022-08-19T06:45:41.725Z,11.43
2022-08-19T06:48:30.466Z,12.20
2022-08-19T06:51:20.526Z,13.60
2022-08-19T06:54:19.216Z,12.07
2022-08-19T06:57:10.075Z,13.95
2022-08-19T06:59:57.580Z,12.63
2022-08-19T07:02:50.748Z,12.38
2022-08-19T07:05:45.984Z,12.53
2022-08-19T07:11:28.892Z,12.17
2022-08-19T07:14:20.113Z,11.50
2022-08-19T07:17:11.399Z,11.57
2022-08-19T07:20:05.386Z,10.57
2022-08-19T07:22:55.998Z,10.85
2022-08-19T07:25:44.359Z,10.88
2022-08-19T07:28:31.837Z,9.70
2022-08-19T07:31:23.897Z,10.82
2022-08-19T07:34:15.706Z,9.02
2022-08-19T07:37:04.905Z,8.50
2022-08-19T07:39:53.636Z,8.17
2022-08-19T07:42:41.362Z,8.52
2022-08-19T07:45:29.502Z,7.93
2022-08-19T07:48:16.987Z,9.05
2022-08-19T07:51:08.526Z,7.97
2022-08-19T07:53:56.138Z,8.13
2022-08-19T07:56:44.852Z,8.55
2022-08-19T07:59:33.385Z,7.70
2022-08-19T08:02:21.116Z,8.40
2022-08-19T08:05:26.869Z,10.20
2022-08-19T08:08:37.258Z,9.00
2022-08-19T08:11:32.269Z,12.70
2022-08-19T08:14:29.391Z,8.38
2022-08-19T08:17:34.970Z,7.80
2022-08-19T08:20:34.382Z,8.27
2022-08-19T08:23:27.304Z,8.48
2022-08-19T08:26:15.975Z,7.95
2022-08-19T08:29:12.705Z,11.35
2022-08-19T08:32:02.406Z,7.90
2022-08-19T08:34:51.740Z,7.57
2022-08-19T08:37:40.754Z,7.00
2022-08-19T08:40:32.964Z,7.70
2022-08-19T08:43:27.665Z,7.95
2022-08-19T08:46:30.719Z,8.23
2022-08-19T08:49:31.800Z,6.00
2022-08-19T08:52:25.025Z,5.55
2022-08-19T08:55:24.377Z,6.03
2022-08-19T08:58:18.480Z,5.50
2022-08-19T09:01:06.171Z,6.68
2022-08-19T09:03:53.586Z,16.15
2022-08-19T09:06:54.215Z,14.05
2022-08-19T09:09:46.746Z,39.95
2022-08-19T09:12:47.302Z,4.47
2022-08-19T09:15:41.357Z,4.80
2022-08-19T09:18:43.515Z,4.82
2022-08-19T09:21:33.288Z,5.28
2022-08-19T09:24:23.074Z,6.60
2022-08-19T09:27:19.000Z,5.85
2022-08-19T09:30:08.808Z,5.00
2022-08-19T09:32:57.361Z,5.28
2022-08-19T09:35:53.024Z,7.68
2022-08-19T09:38:43.666Z,4.95
2022-08-19T09:41:32.823Z,4.72
2022-08-19T09:44:22.262Z,4.25
2022-08-19T09:47:10.471Z,4.40
2022-08-19T09:49:58.546Z,4.05
2022-08-19T09:52:55.482Z,5.78
2022-08-19T09:55:45.248Z,4.68
2022-08-19T09:58:34.503Z,6.78
2022-08-19T10:01:26.469Z,4.85
2022-08-19T10:04:19.677Z,6.18
2022-08-19T10:07:08.219Z,11.73
2022-08-19T10:09:55.667Z,4.97
2022-08-19T10:12:43.505Z,6.25
2022-08-19T10:15:47.127Z,6.03
2022-08-19T10:18:36.643Z,4.10
2022-08-19T10:21:26.729Z,4.55
2022-08-19T10:24:14.090Z,3.90
2022-08-19T10:27:04.269Z,4.25
2022-08-19T10:29:52.007Z,4.22
2022-08-19T10:32:40.976Z,3.85
2022-08-19T10:35:42.620Z,4.32
2022-08-19T10:38:51.271Z,9.82
2022-08-19T10:41:44.321Z,3.40
2022-08-19T10:44:32.051Z,3.80
2022-08-19T10:47:25.718Z,3.95
2022-08-19T10:50:32.460Z,3.95
2022-08-19T10:53:20.995Z,4.05
2022-08-19T10:56:28.166Z,3.40
2022-08-19T10:59:15.800Z,3.55
2022-08-19T11:02:07.705Z,3.33
2022-08-19T11:04:55.342Z,3.25
2022-08-19T11:07:45.650Z,3.50
2022-08-19T11:10:33.300Z,4.80
2022-08-19T11:13:20.689Z,3.70
2022-08-19T11:16:11.527Z,5.25
2022-08-19T11:19:01.101Z,4.00
2022-08-19T11:21:50.724Z,3.58
2022-08-19T11:24:39.741Z,5.05
2022-08-19T11:27:27.402Z,5.18
2022-08-19T11:30:16.979Z,11.15
2022-08-19T11:33:04.873Z,4.22
2022-08-19T11:35:52.447Z,5.47
2022-08-19T11:38:40.148Z,5.53
2022-08-19T11:41:29.644Z,4.53
2022-08-19T11:44:17.430Z,3.72
2022-08-19T11:47:09.008Z,5.05
2022-08-19T11:49:57.186Z,5.07
2022-08-19T11:52:45.967Z,4.03
2022-08-19T11:55:33.298Z,5.03
2022-08-19T11:58:22.586Z,6.32
2022-08-19T12:01:12.156Z,5.10
2022-08-19T12:04:00.645Z,4.97
2022-08-19T12:06:48.064Z,9.68
2022-08-19T12:09:36.362Z,5.35
2022-08-19T12:12:30.005Z,4.30
2022-08-19T12:15:19.084Z,4.63
2022-08-19T12:18:07.121Z,5.00
2022-08-19T12:20:57.117Z,5.88
2022-08-19T12:23:45.992Z,5.10
2022-08-19T12:26:33.901Z,7.28
2022-08-19T12:29:29.575Z,6.10
2022-08-19T12:32:19.240Z,6.88
2022-08-19T12:35:10.157Z,6.53
2022-08-19T12:37:57.847Z,5.97
2022-08-19T12:40:48.706Z,6.40
2022-08-19T12:43:36.822Z,6.68
2022-08-19T12:46:24.346Z,8.27
2022-08-19T12:49:29.692Z,6.60
2022-08-19T12:52:26.840Z,6.38
2022-08-19T12:55:14.308Z,8.80
2022-08-19T12:58:02.440Z,7.10
2022-08-19T13:00:50.129Z,8.35
2022-08-19T13:03:40.653Z,6.10
2022-08-19T13:06:29.877Z,5.22
2022-08-19T13:09:17.418Z,6.15
2022-08-19T13:12:08.817Z,5.63
2022-08-19T13:14:57.854Z,6.18
2022-08-19T13:17:46.424Z,9.23
2022-08-19T13:20:33.892Z,5.93
2022-08-19T13:23:22.701Z,5.00
2022-08-19T13:26:12.746Z,4.97
2022-08-19T13:29:17.569Z,4.30
2022-08-19T13:32:22.950Z,3.83
2022-08-19T13:35:13.785Z,3.65
2022-08-19T13:38:05.816Z,3.78
2022-08-19T13:41:11.064Z,5.18
2022-08-19T13:43:59.585Z,3.65
2022-08-19T13:46:47.636Z,3.95
2022-08-19T13:49:37.218Z,2.97
2022-08-19T13:52:25.527Z,2.90
2022-08-19T13:55:14.447Z,3.50
2022-08-19T13:58:14.544Z,3.33
2022-08-19T14:01:02.717Z,4.53
2022-08-19T14:03:50.705Z,2.97
2022-08-19T14:06:38.482Z,3.50
2022-08-19T14:09:25.921Z,3.47
2022-08-19T14:12:13.610Z,3.50
2022-08-19T14:15:03.597Z,2.88
2022-08-19T14:17:51.488Z,2.90
2022-08-19T14:20:39.652Z,3.35
2022-08-19T14:23:27.469Z,4.32
2022-08-19T14:26:18.790Z,3.88
2022-08-19T14:29:06.971Z,3.42
2022-08-19T14:31:57.343Z,3.92
2022-08-19T14:34:46.726Z,4.30
2022-08-19T14:37:45.167Z,3.38
2022-08-19T14:40:34.135Z,4.18
2022-08-19T14:43:23.825Z,3.95
2022-08-19T14:46:13.662Z,3.67
2022-08-19T14:49:09.580Z,3.53
2022-08-19T14:52:00.873Z,3.40
2022-08-19T14:54:53.034Z,3.60
2022-08-19T14:57:46.508Z,3.85
2022-08-19T15:00:34.767Z,3.08
2022-08-19T15:03:25.047Z,3.65
2022-08-19T15:06:14.152Z,3.72
2022-08-19T15:09:04.406Z,3.42
2022-08-19T15:11:52.556Z,3.85
2022-08-19T15:14:45.589Z,3.92
2022-08-19T15:17:45.267Z,3.30
2022-08-19T15:20:34.313Z,3.10
2022-08-19T15:23:23.528Z,4.90
2022-08-19T15:26:14.250Z,2.97
2022-08-19T15:29:05.268Z,2.90
2022-08-19T15:31:56.139Z,3.00
2022-08-19T15:34:45.313Z,3.53
2022-08-19T15:37:36.965Z,3.63
2022-08-19T15:40:29.336Z,3.05
2022-08-19T15:43:17.390Z,2.80
2022-08-19T15:46:05.241Z,2.70
2022-08-19T15:48:56.216Z,2.97
2022-08-19T15:51:51.632Z,2.50
2022-08-19T15:54:39.773Z,2.78
2022-08-19T15:57:46.362Z,8.73
2022-08-19T16:00:52.721Z,2.65
2022-08-19T16:03:58.453Z,2.92
2022-08-19T16:06:50.364Z,2.85
2022-08-19T16:09:38.194Z,3.00
2022-08-19T16:12:30.354Z,2.83
2022-08-19T16:15:21.132Z,3.05
2022-08-19T16:18:08.912Z,2.80
2022-08-19T16:20:56.544Z,3.20
2022-08-19T16:23:45.837Z,2.13
2022-08-19T16:26:34.964Z,24.55
2022-08-19T16:29:34.747Z,2.78
2022-08-19T16:32:28.464Z,3.10
2022-08-19T16:35:16.403Z,2.70
2022-08-19T16:38:04.860Z,34.75
2022-08-19T16:40:54.269Z,4.35
2022-08-19T16:43:43.245Z,15.48
2022-08-19T16:46:30.891Z,2.90
2022-08-19T16:49:52.282Z,3.05
2022-08-19T16:52:27.771Z,3.20
2022-08-19T16:55:16.873Z,3.30
2022-08-19T16:58:05.677Z,3.20
2022-08-19T17:00:54.854Z,3.45
2022-08-19T17:03:42.458Z,2.90
2022-08-19T17:06:32.767Z,3.10
2022-08-19T17:09:26.073Z,3.00
2022-08-19T17:12:15.621Z,3.13
2022-08-19T17:15:08.331Z,3.20
2022-08-19T17:18:00.933Z,2.88
2022-08-19T17:20:48.702Z,2.78
2022-08-19T17:23:43.476Z,2.92
2022-08-19T17:26:32.256Z,3.88
2022-08-19T17:29:19.979Z,3.17
2022-08-19T17:32:08.297Z,4.60
2022-08-19T17:34:56.209Z,3.03
2022-08-19T17:37:43.922Z,3.15
2022-08-19T17:40:34.243Z,3.05
2022-08-19T17:43:32.391Z,2.75
2022-08-19T17:46:21.620Z,3.50
2022-08-19T17:49:09.569Z,3.38
2022-08-19T17:51:57.419Z,3.38
2022-08-19T17:54:45.130Z,3.25
2022-08-19T17:57:34.750Z,3.67
2022-08-19T18:00:23.737Z,3.47
2022-08-19T18:03:14.858Z,5.75
2022-08-19T18:06:02.894Z,3.97
2022-08-19T18:08:51.348Z,3.85
2022-08-19T18:11:39.210Z,3.45
2022-08-19T18:14:34.843Z,3.55
2022-08-19T18:17:23.477Z,3.60
2022-08-19T18:20:14.724Z,3.72
2022-08-19T18:23:41.192Z,3.20
2022-08-19T18:26:10.417Z,3.78
2022-08-19T18:28:58.578Z,3.40
2022-08-19T18:31:48.316Z,3.78
2022-08-19T18:34:38.073Z,3.72
2022-08-19T18:37:27.436Z,3.40
2022-08-19T18:40:37.945Z,3.08
2022-08-19T18:43:43.258Z,3.33
2022-08-19T18:46:48.319Z,3.80
2022-08-19T18:49:37.863Z,3.53
2022-08-19T18:52:27.295Z,3.50
2022-08-19T18:55:18.108Z,3.28
2022-08-19T18:58:06.219Z,3.67
2022-08-19T19:00:57.042Z,3.90
2022-08-19T19:03:49.569Z,3.53
2022-08-19T19:06:42.704Z,3.83
2022-08-19T19:09:30.737Z,3.55
2022-08-19T19:12:19.268Z,3.35
2022-08-19T19:15:08.441Z,3.42
2022-08-19T19:17:56.548Z,4.53
2022-08-19T19:20:47.647Z,4.63
2022-08-19T19:23:40.788Z,3.80
2022-08-19T19:26:29.297Z,3.80
2022-08-19T19:29:17.608Z,3.70
2022-08-19T19:32:07.381Z,3.47
2022-08-19T19:34:55.497Z,4.10
2022-08-19T19:37:45.506Z,3.47
2022-08-19T19:40:35.097Z,3.30
2022-08-19T19:43:23.244Z,2.95
2022-08-19T19:46:16.704Z,3.22
2022-08-19T19:49:05.231Z,3.85
2022-08-19T19:51:53.071Z,4.45
2022-08-19T19:54:41.850Z,3.42
2022-08-19T19:57:37.508Z,3.72
2022-08-19T20:00:26.572Z,3.40
2022-08-19T20:03:14.321Z,3.50
2022-08-19T20:06:02.327Z,3.45
2022-08-19T20:09:08.286Z,4.43
2022-08-19T20:11:59.068Z,3.60
2022-08-19T20:14:48.902Z,3.50
2022-08-19T20:17:42.650Z,4.63
2022-08-19T20:20:31.877Z,3.47
2022-08-19T20:23:20.156Z,3.55
2022-08-19T20:26:10.287Z,4.05
2022-08-19T20:29:37.793Z,3.60
2022-08-19T20:32:22.296Z,3.78
2022-08-19T20:35:11.631Z,3.30
2022-08-19T20:38:00.866Z,3.03
2022-08-19T20:40:48.961Z,3.63
2022-08-19T20:43:37.205Z,3.55
2022-08-19T20:46:25.370Z,3.90
2022-08-19T20:49:16.093Z,3.72
2022-08-19T20:52:06.396Z,3.58
2022-08-19T20:54:54.570Z,3.60
2022-08-19T20:57:42.747Z,3.97
2022-08-19T21:00:30.798Z,8.68
2022-08-19T21:03:21.716Z,3.97
2022-08-19T21:06:12.252Z,4.28
2022-08-19T21:09:01.770Z,4.10
2022-08-19T21:11:52.265Z,4.45
2022-08-19T21:14:40.808Z,4.55
2022-08-19T21:17:28.873Z,4.03
2022-08-19T21:20:18.493Z,5.30
2022-08-19T21:23:10.230Z,5.47
2022-08-19T21:26:00.891Z,5.32
2022-08-19T21:28:52.180Z,4.43
2022-08-19T21:31:43.709Z,4.90
2022-08-19T21:34:32.609Z,4.78
2022-08-19T21:37:25.896Z,5.15
2022-08-19T21:40:16.973Z,4.90
2022-08-19T21:43:06.779Z,4.85
2022-08-19T21:45:54.818Z,4.68
2022-08-19T21:48:42.725Z,4.20
2022-08-19T21:51:31.941Z,5.43
2022-08-19T21:54:19.598Z,5.28
2022-08-19T21:57:11.394Z,4.47
2022-08-19T21:59:59.349Z,3.80
2022-08-19T22:02:47.340Z,4.82
2022-08-19T22:05:35.528Z,4.38
2022-08-19T22:08:26.006Z,4.30
2022-08-19T22:11:14.150Z,4.07
2022-08-19T22:14:03.878Z,3.33
2022-08-19T22:16:55.721Z,3.88
2022-08-19T22:19:45.309Z,3.72
2022-08-19T22:22:54.711Z,3.47
2022-08-19T22:31:39.837Z,3.78
2022-08-19T22:35:30.239Z,4.10
2022-08-19T22:42:32.933Z,3.33
2022-08-19T22:45:21.712Z,3.53
2022-08-19T22:48:14.185Z,4.40
2022-08-19T22:51:19.520Z,4.00
2022-08-19T22:54:08.011Z,3.67
2022-08-19T22:56:56.023Z,3.17
2022-08-19T22:59:45.019Z,3.28
2022-08-19T23:02:38.458Z,4.38
2022-08-19T23:05:30.676Z,3.67
2022-08-19T23:08:21.087Z,4.22
2022-08-19T23:11:11.555Z,3.78
2022-08-19T23:14:01.673Z,4.28
2022-08-19T23:16:51.445Z,3.85
2022-08-19T23:19:40.878Z,4.00
2022-08-19T23:22:30.756Z,4.20
2022-08-19T23:25:22.047Z,4.00
2022-08-19T23:28:27.584Z,4.03
2022-08-19T23:31:16.770Z,4.57
2022-08-19T23:34:05.618Z,3.78
2022-08-19T23:36:53.649Z,4.10
2022-08-19T23:39:43.658Z,3.95
2022-08-19T23:42:33.021Z,4.10
2022-08-19T23:45:26.579Z,3.85
2022-08-19T23:52:43.375Z,3.60
2022-08-19T23:56:18.312Z,4.05
2022-08-19T23:59:15.073Z,3.47
